sensor_id;sensor_type;location;lat;lon;timestamp;P1;durP1;ratioP1;P2;durP2;ratioP2
21138;SDS011;10727;43.600;1.444;2023-07-02T00:00:02;15.93;;;8.02;;
21138;SDS011;10727;43.600;1.444;2023-07-02T00:03:14;15.48;;;8.15;;
21138;SDS011;10727;43.600;1.444;2023-07-02T00:06:19;15.55;;;7.88;;
21138;SDS011;10727;43.600;1.444;2023-07-02T00:09:24;14.93;;;8.07;;
21138;SDS011;10727;43.600;1.444;2023-07-02T00:12:29;12.77;;;8.25;;
21138;SDS011;10727;43.600;1.444;2023-07-02T00:15:35;16.23;;;7.78;;
21138;SDS011;10727;43.600;1.444;2023-07-02T00:18:41;13.52;;;7.82;;
21138;SDS011;10727;43.600;1.444;2023-07-02T00:21:46;15.30;;;7.60;;
21138;SDS011;10727;43.600;1.444;2023-07-02T00:24:51;12.27;;;8.13;;
21138;SDS011;10727;43.600;1.444;2023-07-02T00:27:58;16.40;;;7.97;;
21138;SDS011;10727;43.600;1.444;2023-07-02T00:31:04;14.65;;;8.52;;
21138;SDS011;10727;43.600;1.444;2023-07-02T00:34:13;15.05;;;8.18;;
21138;SDS011;10727;43.600;1.444;2023-07-02T00:37:18;15.70;;;7.60;;
21138;SDS011;10727;43.600;1.444;2023-07-02T00:40:23;17.08;;;8.13;;
21138;SDS011;10727;43.600;1.444;2023-07-02T00:43:29;17.92;;;9.15;;
21138;SDS011;10727;43.600;1.444;2023-07-02T00:46:34;20.90;;;8.23;;
21138;SDS011;10727;43.600;1.444;2023-07-02T00:49:40;14.63;;;8.23;;
21138;SDS011;10727;43.600;1.444;2023-07-02T00:52:46;12.23;;;8.20;;
21138;SDS011;10727;43.600;1.444;2023-07-02T00:55:51;15.07;;;8.75;;
21138;SDS011;10727;43.600;1.444;2023-07-02T00:58:57;14.20;;;9.05;;
21138;SDS011;10727;43.600;1.444;2023-07-02T01:02:04;13.13;;;8.77;;
21138;SDS011;10727;43.600;1.444;2023-07-02T01:05:15;15.75;;;8.73;;
21138;SDS011;10727;43.600;1.444;2023-07-02T01:08:20;17.90;;;8.73;;
21138;SDS011;10727;43.600;1.444;2023-07-02T01:11:27;14.98;;;8.82;;
21138;SDS011;10727;43.600;1.444;2023-07-02T01:14:33;13.68;;;9.05;;
21138;SDS011;10727;43.600;1.444;2023-07-02T01:17:39;13.63;;;8.60;;
21138;SDS011;10727;43.600;1.444;2023-07-02T01:20:46;13.40;;;8.68;;
21138;SDS011;10727;43.600;1.444;2023-07-02T01:23:52;14.98;;;8.73;;
21138;SDS011;10727;43.600;1.444;2023-07-02T01:26:57;15.17;;;8.43;;
21138;SDS011;10727;43.600;1.444;2023-07-02T01:30:04;16.20;;;8.90;;
21138;SDS011;10727;43.600;1.444;2023-07-02T01:33:09;15.88;;;8.40;;
21138;SDS011;10727;43.600;1.444;2023-07-02T01:36:16;15.63;;;8.65;;
21138;SDS011;10727;43.600;1.444;2023-07-02T01:39:22;16.73;;;8.48;;
21138;SDS011;10727;43.600;1.444;2023-07-02T01:42:27;15.85;;;8.15;;
21138;SDS011;10727;43.600;1.444;2023-07-02T01:45:32;18.60;;;8.70;;
21138;SDS011;10727;43.600;1.444;2023-07-02T01:48:37;14.00;;;8.15;;
21138;SDS011;10727;43.600;1.444;2023-07-02T01:51:45;18.05;;;8.60;;
21138;SDS011;10727;43.600;1.444;2023-07-02T01:54:53;19.30;;;8.80;;
21138;SDS011;10727;43.600;1.444;2023-07-02T01:57:59;14.65;;;8.60;;
21138;SDS011;10727;43.600;1.444;2023-07-02T02:01:04;14.73;;;8.70;;
21138;SDS011;10727;43.600;1.444;2023-07-02T02:04:09;13.55;;;8.40;;
21138;SDS011;10727;43.600;1.444;2023-07-02T02:07:17;14.43;;;8.23;;
21138;SDS011;10727;43.600;1.444;2023-07-02T02:10:21;13.13;;;8.43;;
21138;SDS011;10727;43.600;1.444;2023-07-02T02:13:27;14.05;;;8.80;;
21138;SDS011;10727;43.600;1.444;2023-07-02T02:16:32;14.27;;;8.60;;
21138;SDS011;10727;43.600;1.444;2023-07-02T02:19:39;18.05;;;8.68;;
21138;SDS011;10727;43.600;1.444;2023-07-02T02:22:49;14.90;;;8.50;;
21138;SDS011;10727;43.600;1.444;2023-07-02T02:25:54;13.77;;;8.43;;
21138;SDS011;10727;43.600;1.444;2023-07-02T02:28:59;15.25;;;9.23;;
21138;SDS011;10727;43.600;1.444;2023-07-02T02:32:05;15.13;;;8.57;;
21138;SDS011;10727;43.600;1.444;2023-07-02T02:35:10;17.13;;;8.73;;
21138;SDS011;10727;43.600;1.444;2023-07-02T02:38:17;15.00;;;8.55;;
21138;SDS011;10727;43.600;1.444;2023-07-02T02:41:23;12.65;;;8.50;;
21138;SDS011;10727;43.600;1.444;2023-07-02T02:44:30;12.90;;;7.78;;
21138;SDS011;10727;43.600;1.444;2023-07-02T02:47:36;12.43;;;8.65;;
21138;SDS011;10727;43.600;1.444;2023-07-02T02:50:42;13.05;;;8.25;;
21138;SDS011;10727;43.600;1.444;2023-07-02T02:53:50;12.68;;;7.90;;
21138;SDS011;10727;43.600;1.444;2023-07-02T02:56:55;14.95;;;7.40;;
21138;SDS011;10727;43.600;1.444;2023-07-02T03:00:01;12.05;;;7.57;;
21138;SDS011;10727;43.600;1.444;2023-07-02T03:03:08;14.18;;;7.88;;
21138;SDS011;10727;43.600;1.444;2023-07-02T03:06:13;14.93;;;8.45;;
21138;SDS011;10727;43.600;1.444;2023-07-02T03:09:20;15.07;;;8.65;;
21138;SDS011;10727;43.600;1.444;2023-07-02T03:12:26;16.98;;;8.35;;
21138;SDS011;10727;43.600;1.444;2023-07-02T03:15:31;13.27;;;8.77;;
21138;SDS011;10727;43.600;1.444;2023-07-02T03:18:36;15.43;;;9.18;;
21138;SDS011;10727;43.600;1.444;2023-07-02T03:21:42;17.27;;;9.52;;
21138;SDS011;10727;43.600;1.444;2023-07-02T03:24:49;17.95;;;9.45;;
21138;SDS011;10727;43.600;1.444;2023-07-02T03:27:54;17.25;;;9.25;;
21138;SDS011;10727;43.600;1.444;2023-07-02T03:30:59;17.55;;;9.48;;
21138;SDS011;10727;43.600;1.444;2023-07-02T03:34:06;16.50;;;8.73;;
21138;SDS011;10727;43.600;1.444;2023-07-02T03:37:12;16.17;;;8.98;;
21138;SDS011;10727;43.600;1.444;2023-07-02T03:40:19;15.65;;;9.80;;
21138;SDS011;10727;43.600;1.444;2023-07-02T03:43:24;19.42;;;10.65;;
21138;SDS011;10727;43.600;1.444;2023-07-02T03:46:29;15.77;;;9.82;;
21138;SDS011;10727;43.600;1.444;2023-07-02T03:49:34;14.88;;;9.27;;
21138;SDS011;10727;43.600;1.444;2023-07-02T03:52:39;16.90;;;9.60;;
21138;SDS011;10727;43.600;1.444;2023-07-02T03:55:46;16.60;;;9.20;;
21138;SDS011;10727;43.600;1.444;2023-07-02T03:58:51;17.92;;;9.88;;
21138;SDS011;10727;43.600;1.444;2023-07-02T04:01:56;14.43;;;9.18;;
21138;SDS011;10727;43.600;1.444;2023-07-02T04:05:02;14.15;;;9.13;;
21138;SDS011;10727;43.600;1.444;2023-07-02T04:08:07;17.80;;;9.23;;
21138;SDS011;10727;43.600;1.444;2023-07-02T04:11:14;15.45;;;8.77;;
21138;SDS011;10727;43.600;1.444;2023-07-02T04:14:19;15.65;;;8.52;;
21138;SDS011;10727;43.600;1.444;2023-07-02T04:17:25;15.93;;;8.93;;
21138;SDS011;10727;43.600;1.444;2023-07-02T04:20:30;15.10;;;8.88;;
21138;SDS011;10727;43.600;1.444;2023-07-02T04:23:35;15.65;;;8.48;;
21138;SDS011;10727;43.600;1.444;2023-07-02T04:26:42;15.27;;;8.57;;
21138;SDS011;10727;43.600;1.444;2023-07-02T04:29:48;14.75;;;8.50;;
21138;SDS011;10727;43.600;1.444;2023-07-02T04:32:53;15.60;;;8.75;;
21138;SDS011;10727;43.600;1.444;2023-07-02T04:35:59;13.38;;;7.60;;
21138;SDS011;10727;43.600;1.444;2023-07-02T04:39:04;11.98;;;7.38;;
21138;SDS011;10727;43.600;1.444;2023-07-02T04:42:11;14.75;;;8.13;;
21138;SDS011;10727;43.600;1.444;2023-07-02T04:45:17;9.88;;;7.15;;
21138;SDS011;10727;43.600;1.444;2023-07-02T04:48:23;12.07;;;7.63;;
21138;SDS011;10727;43.600;1.444;2023-07-02T04:51:28;13.00;;;7.30;;
21138;SDS011;10727;43.600;1.444;2023-07-02T04:54:34;12.82;;;6.85;;
21138;SDS011;10727;43.600;1.444;2023-07-02T04:57:41;14.18;;;7.25;;
21138;SDS011;10727;43.600;1.444;2023-07-02T05:00:47;13.55;;;7.25;;
21138;SDS011;10727;43.600;1.444;2023-07-02T05:03:53;12.30;;;7.15;;
21138;SDS011;10727;43.600;1.444;2023-07-02T05:06:59;10.13;;;6.75;;
21138;SDS011;10727;43.600;1.444;2023-07-02T05:10:04;9.73;;;6.40;;
21138;SDS011;10727;43.600;1.444;2023-07-02T05:13:11;12.82;;;6.65;;
21138;SDS011;10727;43.600;1.444;2023-07-02T05:16:16;12.70;;;6.63;;
21138;SDS011;10727;43.600;1.444;2023-07-02T05:19:22;12.23;;;6.40;;
21138;SDS011;10727;43.600;1.444;2023-07-02T05:22:27;12.43;;;6.40;;
21138;SDS011;10727;43.600;1.444;2023-07-02T05:25:33;12.30;;;6.28;;
21138;SDS011;10727;43.600;1.444;2023-07-02T05:28:39;16.73;;;5.95;;
21138;SDS011;10727;43.600;1.444;2023-07-02T05:31:45;9.13;;;5.97;;
21138;SDS011;10727;43.600;1.444;2023-07-02T05:34:50;10.13;;;5.80;;
21138;SDS011;10727;43.600;1.444;2023-07-02T05:37:55;9.70;;;5.30;;
21138;SDS011;10727;43.600;1.444;2023-07-02T05:41:01;11.20;;;5.72;;
21138;SDS011;10727;43.600;1.444;2023-07-02T05:44:08;9.00;;;5.28;;
21138;SDS011;10727;43.600;1.444;2023-07-02T05:47:13;9.88;;;5.68;;
21138;SDS011;10727;43.600;1.444;2023-07-02T05:50:18;9.75;;;5.45;;
21138;SDS011;10727;43.600;1.444;2023-07-02T05:53:24;10.85;;;5.97;;
21138;SDS011;10727;43.600;1.444;2023-07-02T05:56:30;10.88;;;5.57;;
21138;SDS011;10727;43.600;1.444;2023-07-02T05:59:37;7.93;;;4.85;;
21138;SDS011;10727;43.600;1.444;2023-07-02T06:02:42;10.57;;;5.60;;
21138;SDS011;10727;43.600;1.444;2023-07-02T06:05:48;11.45;;;5.05;;
21138;SDS011;10727;43.600;1.444;2023-07-02T06:08:53;10.73;;;5.43;;
21138;SDS011;10727;43.600;1.444;2023-07-02T06:11:59;8.65;;;5.15;;
21138;SDS011;10727;43.600;1.444;2023-07-02T06:15:07;6.35;;;4.75;;
21138;SDS011;10727;43.600;1.444;2023-07-02T06:18:12;6.60;;;4.45;;
21138;SDS011;10727;43.600;1.444;2023-07-02T06:21:17;7.55;;;4.55;;
21138;SDS011;10727;43.600;1.444;2023-07-02T06:24:23;8.55;;;4.68;;
21138;SDS011;10727;43.600;1.444;2023-07-02T06:27:29;7.43;;;4.80;;
21138;SDS011;10727;43.600;1.444;2023-07-02T06:30:36;7.05;;;4.45;;
21138;SDS011;10727;43.600;1.444;2023-07-02T06:33:41;9.60;;;4.80;;
21138;SDS011;10727;43.600;1.444;2023-07-02T06:36:47;8.70;;;4.50;;
21138;SDS011;10727;43.600;1.444;2023-07-02T06:39:53;7.82;;;4.90;;
21138;SDS011;10727;43.600;1.444;2023-07-02T06:42:58;8.35;;;4.72;;
21138;SDS011;10727;43.600;1.444;2023-07-02T06:46:05;7.18;;;4.28;;
21138;SDS011;10727;43.600;1.444;2023-07-02T06:49:10;9.13;;;4.60;;
21138;SDS011;10727;43.600;1.444;2023-07-02T06:52:15;10.90;;;6.75;;
21138;SDS011;10727;43.600;1.444;2023-07-02T06:55:21;9.30;;;5.65;;
21138;SDS011;10727;43.600;1.444;2023-07-02T06:58:26;8.25;;;5.15;;
21138;SDS011;10727;43.600;1.444;2023-07-02T07:01:33;11.18;;;5.68;;
21138;SDS011;10727;43.600;1.444;2023-07-02T07:04:39;11.02;;;6.70;;
21138;SDS011;10727;43.600;1.444;2023-07-02T07:07:44;8.20;;;5.00;;
21138;SDS011;10727;43.600;1.444;2023-07-02T07:10:50;8.60;;;4.55;;
21138;SDS011;10727;43.600;1.444;2023-07-02T07:13:55;7.15;;;4.72;;
21138;SDS011;10727;43.600;1.444;2023-07-02T07:17:02;9.23;;;3.90;;
21138;SDS011;10727;43.600;1.444;2023-07-02T07:20:08;5.20;;;3.72;;
21138;SDS011;10727;43.600;1.444;2023-07-02T07:23:15;7.97;;;4.50;;
21138;SDS011;10727;43.600;1.444;2023-07-02T07:26:20;9.18;;;4.07;;
21138;SDS011;10727;43.600;1.444;2023-07-02T07:29:26;6.65;;;3.53;;
21138;SDS011;10727;43.600;1.444;2023-07-02T07:32:33;12.80;;;6.30;;
21138;SDS011;10727;43.600;1.444;2023-07-02T07:35:38;7.75;;;5.32;;
21138;SDS011;10727;43.600;1.444;2023-07-02T07:38:43;5.85;;;4.00;;
21138;SDS011;10727;43.600;1.444;2023-07-02T07:41:48;6.82;;;4.32;;
21138;SDS011;10727;43.600;1.444;2023-07-02T07:44:54;7.43;;;3.70;;
21138;SDS011;10727;43.600;1.444;2023-07-02T07:48:01;5.60;;;3.38;;
21138;SDS011;10727;43.600;1.444;2023-07-02T07:51:06;7.32;;;3.70;;
21138;SDS011;10727;43.600;1.444;2023-07-02T07:54:12;6.78;;;3.83;;
21138;SDS011;10727;43.600;1.444;2023-07-02T07:57:17;5.85;;;3.10;;
21138;SDS011;10727;43.600;1.444;2023-07-02T08:00:23;4.13;;;3.35;;
21138;SDS011;10727;43.600;1.444;2023-07-02T08:03:31;9.23;;;3.67;;
21138;SDS011;10727;43.600;1.444;2023-07-02T08:06:36;4.60;;;3.53;;
21138;SDS011;10727;43.600;1.444;2023-07-02T08:09:42;11.93;;;7.00;;
21138;SDS011;10727;43.600;1.444;2023-07-02T08:12:46;7.95;;;6.15;;
21138;SDS011;10727;43.600;1.444;2023-07-02T08:15:52;3.70;;;3.25;;
21138;SDS011;10727;43.600;1.444;2023-07-02T08:18:58;4.32;;;3.22;;
21138;SDS011;10727;43.600;1.444;2023-07-02T08:22:03;4.20;;;3.13;;
21138;SDS011;10727;43.600;1.444;2023-07-02T08:25:09;5.55;;;3.03;;
21138;SDS011;10727;43.600;1.444;2023-07-02T08:28:14;3.67;;;2.88;;
21138;SDS011;10727;43.600;1.444;2023-07-02T08:31:19;3.03;;;2.72;;
21138;SDS011;10727;43.600;1.444;2023-07-02T08:34:25;3.30;;;2.70;;
21138;SDS011;10727;43.600;1.444;2023-07-02T08:37:30;5.35;;;3.38;;
21138;SDS011;10727;43.600;1.444;2023-07-02T08:40:35;3.80;;;2.95;;
21138;SDS011;10727;43.600;1.444;2023-07-02T08:43:40;4.18;;;2.95;;
21138;SDS011;10727;43.600;1.444;2023-07-02T08:46:45;4.10;;;2.83;;
21138;SDS011;10727;43.600;1.444;2023-07-02T08:49:55;4.65;;;2.70;;
21138;SDS011;10727;43.600;1.444;2023-07-02T08:53:00;3.08;;;2.50;;
21138;SDS011;10727;43.600;1.444;2023-07-02T08:56:05;4.03;;;2.55;;
21138;SDS011;10727;43.600;1.444;2023-07-02T08:59:11;2.15;;;1.90;;
21138;SDS011;10727;43.600;1.444;2023-07-02T09:02:16;4.07;;;2.65;;
21138;SDS011;10727;43.600;1.444;2023-07-02T09:05:23;2.67;;;2.47;;
21138;SDS011;10727;43.600;1.444;2023-07-02T09:08:28;12.00;;;9.75;;
21138;SDS011;10727;43.600;1.444;2023-07-02T09:11:45;2.97;;;2.65;;
21138;SDS011;10727;43.600;1.444;2023-07-02T09:14:55;2.25;;;1.55;;
21138;SDS011;10727;43.600;1.444;2023-07-02T09:18:01;1.27;;;1.05;;
21138;SDS011;10727;43.600;1.444;2023-07-02T09:21:08;1.60;;;1.00;;
21138;SDS011;10727;43.600;1.444;2023-07-02T09:24:14;2.60;;;0.95;;
21138;SDS011;10727;43.600;1.444;2023-07-02T09:27:20;1.90;;;1.13;;
21138;SDS011;10727;43.600;1.444;2023-07-02T09:30:25;1.52;;;0.95;;
21138;SDS011;10727;43.600;1.444;2023-07-02T09:33:31;1.85;;;1.00;;
21138;SDS011;10727;43.600;1.444;2023-07-02T09:36:38;1.90;;;1.08;;
21138;SDS011;10727;43.600;1.444;2023-07-02T09:39:44;2.65;;;1.00;;
21138;SDS011;10727;43.600;1.444;2023-07-02T09:42:49;1.73;;;1.00;;
21138;SDS011;10727;43.600;1.444;2023-07-02T09:45:55;2.78;;;1.13;;
21138;SDS011;10727;43.600;1.444;2023-07-02T09:49:01;2.40;;;1.00;;
21138;SDS011;10727;43.600;1.444;2023-07-02T09:52:09;1.65;;;1.00;;
21138;SDS011;10727;43.600;1.444;2023-07-02T09:55:14;1.02;;;0.90;;
21138;SDS011;10727;43.600;1.444;2023-07-02T09:58:20;0.95;;;0.80;;
21138;SDS011;10727;43.600;1.444;2023-07-02T10:01:25;2.45;;;2.13;;
21138;SDS011;10727;43.600;1.444;2023-07-02T10:04:39;5.45;;;4.32;;
21138;SDS011;10727;43.600;1.444;2023-07-02T10:07:47;3.63;;;1.70;;
21138;SDS011;10727;43.600;1.444;2023-07-02T10:10:52;2.97;;;2.20;;
21138;SDS011;10727;43.600;1.444;2023-07-02T10:13:57;2.22;;;1.40;;
21138;SDS011;10727;43.600;1.444;2023-07-02T10:17:03;3.85;;;1.20;;
21138;SDS011;10727;43.600;1.444;2023-07-02T10:20:09;2.40;;;1.35;;
21138;SDS011;10727;43.600;1.444;2023-07-02T10:23:16;3.08;;;1.15;;
21138;SDS011;10727;43.600;1.444;2023-07-02T10:26:21;1.25;;;1.00;;
21138;SDS011;10727;43.600;1.444;2023-07-02T10:29:29;1.77;;;0.90;;
21138;SDS011;10727;43.600;1.444;2023-07-02T10:32:35;2.45;;;1.27;;
21138;SDS011;10727;43.600;1.444;2023-07-02T10:35:41;1.30;;;0.80;;
21138;SDS011;10727;43.600;1.444;2023-07-02T10:38:49;1.83;;;0.85;;
21138;SDS011;10727;43.600;1.444;2023-07-02T10:42:02;1.90;;;0.90;;
21138;SDS011;10727;43.600;1.444;2023-07-02T10:45:08;0.95;;;0.80;;
21138;SDS011;10727;43.600;1.444;2023-07-02T10:48:13;0.70;;;0.70;;
21138;SDS011;10727;43.600;1.444;2023-07-02T10:51:18;1.65;;;0.95;;
21138;SDS011;10727;43.600;1.444;2023-07-02T10:54:25;1.20;;;0.90;;
21138;SDS011;10727;43.600;1.444;2023-07-02T10:57:31;1.58;;;0.82;;
21138;SDS011;10727;43.600;1.444;2023-07-02T11:00:45;1.85;;;0.90;;
21138;SDS011;10727;43.600;1.444;2023-07-02T11:03:57;1.73;;;1.00;;
21138;SDS011;10727;43.600;1.444;2023-07-02T11:07:03;1.85;;;0.90;;
21138;SDS011;10727;43.600;1.444;2023-07-02T11:10:20;1.42;;;0.90;;
21138;SDS011;10727;43.600;1.444;2023-07-02T11:13:26;1.25;;;0.95;;
21138;SDS011;10727;43.600;1.444;2023-07-02T11:16:31;1.88;;;0.98;;
21138;SDS011;10727;43.600;1.444;2023-07-02T11:19:37;1.45;;;0.80;;
21138;SDS011;10727;43.600;1.444;2023-07-02T11:22:42;4.50;;;1.42;;
21138;SDS011;10727;43.600;1.444;2023-07-02T11:25:58;1.48;;;1.00;;
21138;SDS011;10727;43.600;1.444;2023-07-02T11:29:06;3.35;;;1.05;;
21138;SDS011;10727;43.600;1.444;2023-07-02T11:32:13;2.38;;;1.35;;
21138;SDS011;10727;43.600;1.444;2023-07-02T11:35:18;2.45;;;1.10;;
21138;SDS011;10727;43.600;1.444;2023-07-02T11:38:27;1.95;;;1.00;;
21138;SDS011;10727;43.600;1.444;2023-07-02T11:41:37;2.90;;;0.90;;
21138;SDS011;10727;43.600;1.444;2023-07-02T11:44:43;1.20;;;0.88;;
21138;SDS011;10727;43.600;1.444;2023-07-02T11:47:48;1.25;;;0.77;;
21138;SDS011;10727;43.600;1.444;2023-07-02T11:50:54;1.25;;;0.90;;
21138;SDS011;10727;43.600;1.444;2023-07-02T11:53:59;1.85;;;1.00;;
21138;SDS011;10727;43.600;1.444;2023-07-02T11:57:06;2.70;;;1.00;;
21138;SDS011;10727;43.600;1.444;2023-07-02T12:00:12;2.17;;;1.10;;
21138;SDS011;10727;43.600;1.444;2023-07-02T12:03:18;1.88;;;0.80;;
21138;SDS011;10727;43.600;1.444;2023-07-02T12:06:24;2.47;;;1.17;;
21138;SDS011;10727;43.600;1.444;2023-07-02T12:09:30;1.10;;;1.00;;
21138;SDS011;10727;43.600;1.444;2023-07-02T12:12:37;1.60;;;0.93;;
21138;SDS011;10727;43.600;1.444;2023-07-02T12:15:42;1.67;;;1.10;;
21138;SDS011;10727;43.600;1.444;2023-07-02T12:18:47;2.35;;;1.10;;
21138;SDS011;10727;43.600;1.444;2023-07-02T12:21:52;2.60;;;1.20;;
21138;SDS011;10727;43.600;1.444;2023-07-02T12:24:58;2.25;;;1.05;;
21138;SDS011;10727;43.600;1.444;2023-07-02T12:28:04;1.20;;;0.90;;
21138;SDS011;10727;43.600;1.444;2023-07-02T12:31:09;1.35;;;1.10;;
21138;SDS011;10727;43.600;1.444;2023-07-02T12:34:15;1.33;;;0.90;;
21138;SDS011;10727;43.600;1.444;2023-07-02T12:37:21;1.70;;;0.90;;
21138;SDS011;10727;43.600;1.444;2023-07-02T12:40:26;2.20;;;1.00;;
21138;SDS011;10727;43.600;1.444;2023-07-02T12:43:33;1.80;;;1.10;;
21138;SDS011;10727;43.600;1.444;2023-07-02T12:46:38;3.95;;;1.30;;
21138;SDS011;10727;43.600;1.444;2023-07-02T12:49:43;1.23;;;1.10;;
21138;SDS011;10727;43.600;1.444;2023-07-02T12:52:48;2.28;;;1.17;;
21138;SDS011;10727;43.600;1.444;2023-07-02T12:55:54;1.48;;;1.30;;
21138;SDS011;10727;43.600;1.444;2023-07-02T12:59:01;4.18;;;1.50;;
21138;SDS011;10727;43.600;1.444;2023-07-02T13:02:06;2.08;;;1.35;;
21138;SDS011;10727;43.600;1.444;2023-07-02T13:05:11;1.70;;;1.40;;
21138;SDS011;10727;43.600;1.444;2023-07-02T13:08:16;3.25;;;1.30;;
21138;SDS011;10727;43.600;1.444;2023-07-02T13:11:22;2.20;;;1.33;;
21138;SDS011;10727;43.600;1.444;2023-07-02T13:14:28;2.08;;;1.63;;
21138;SDS011;10727;43.600;1.444;2023-07-02T13:17:34;2.13;;;1.50;;
21138;SDS011;10727;43.600;1.444;2023-07-02T13:20:39;1.90;;;1.50;;
21138;SDS011;10727;43.600;1.444;2023-07-02T13:23:44;2.20;;;1.40;;
21138;SDS011;10727;43.600;1.444;2023-07-02T13:26:50;1.77;;;1.42;;
21138;SDS011;10727;43.600;1.444;2023-07-02T13:29:57;2.25;;;1.50;;
21138;SDS011;10727;43.600;1.444;2023-07-02T13:33:02;4.53;;;1.50;;
21138;SDS011;10727;43.600;1.444;2023-07-02T13:36:08;3.30;;;1.70;;
21138;SDS011;10727;43.600;1.444;2023-07-02T13:39:13;2.15;;;1.63;;
21138;SDS011;10727;43.600;1.444;2023-07-02T13:42:19;2.25;;;1.55;;
21138;SDS011;10727;43.600;1.444;2023-07-02T13:45:25;2.50;;;1.70;;
21138;SDS011;10727;43.600;1.444;2023-07-02T13:48:31;2.35;;;1.60;;
21138;SDS011;10727;43.600;1.444;2023-07-02T13:51:37;2.83;;;1.63;;
21138;SDS011;10727;43.600;1.444;2023-07-02T13:54:43;3.63;;;1.38;;
21138;SDS011;10727;43.600;1.444;2023-07-02T13:57:48;1.77;;;1.60;;
21138;SDS011;10727;43.600;1.444;2023-07-02T14:00:55;7.07;;;2.05;;
21138;SDS011;10727;43.600;1.444;2023-07-02T14:04:00;2.70;;;1.33;;
21138;SDS011;10727;43.600;1.444;2023-07-02T14:07:06;3.17;;;1.40;;
21138;SDS011;10727;43.600;1.444;2023-07-02T14:10:12;3.33;;;1.50;;
21138;SDS011;10727;43.600;1.444;2023-07-02T14:13:17;2.65;;;1.33;;
21138;SDS011;10727;43.600;1.444;2023-07-02T14:16:24;2.13;;;1.30;;
21138;SDS011;10727;43.600;1.444;2023-07-02T14:19:29;1.52;;;1.40;;
21138;SDS011;10727;43.600;1.444;2023-07-02T14:22:35;1.40;;;1.30;;
21138;SDS011;10727;43.600;1.444;2023-07-02T14:25:40;2.28;;;1.70;;
21138;SDS011;10727;43.600;1.444;2023-07-02T14:28:45;1.83;;;1.40;;
21138;SDS011;10727;43.600;1.444;2023-07-02T14:31:51;2.58;;;1.10;;
21138;SDS011;10727;43.600;1.444;2023-07-02T14:34:56;2.63;;;1.35;;
21138;SDS011;10727;43.600;1.444;2023-07-02T14:38:02;5.00;;;1.08;;
21138;SDS011;10727;43.600;1.444;2023-07-02T14:41:07;1.75;;;1.42;;
21138;SDS011;10727;43.600;1.444;2023-07-02T14:44:12;1.92;;;1.30;;
21138;SDS011;10727;43.600;1.444;2023-07-02T14:47:19;2.63;;;1.30;;
21138;SDS011;10727;43.600;1.444;2023-07-02T14:50:24;2.05;;;1.05;;
21138;SDS011;10727;43.600;1.444;2023-07-02T14:53:29;1.38;;;1.00;;
21138;SDS011;10727;43.600;1.444;2023-07-02T14:56:35;2.33;;;1.42;;
21138;SDS011;10727;43.600;1.444;2023-07-02T14:59:40;2.28;;;1.20;;
21138;SDS011;10727;43.600;1.444;2023-07-02T15:02:47;5.30;;;2.17;;
21138;SDS011;10727;43.600;1.444;2023-07-02T15:05:52;4.05;;;1.17;;
21138;SDS011;10727;43.600;1.444;2023-07-02T15:08:57;1.55;;;1.00;;
21138;SDS011;10727;43.600;1.444;2023-07-02T15:12:02;1.13;;;0.90;;
21138;SDS011;10727;43.600;1.444;2023-07-02T15:15:07;2.08;;;1.33;;
21138;SDS011;10727;43.600;1.444;2023-07-02T15:18:14;1.92;;;1.35;;
21138;SDS011;10727;43.600;1.444;2023-07-02T15:21:20;2.78;;;1.35;;
21138;SDS011;10727;43.600;1.444;2023-07-02T15:24:26;1.88;;;0.98;;
21138;SDS011;10727;43.600;1.444;2023-07-02T15:27:31;2.10;;;1.15;;
21138;SDS011;10727;43.600;1.444;2023-07-02T15:30:37;5.70;;;5.10;;
21138;SDS011;10727;43.600;1.444;2023-07-02T15:33:44;2.53;;;2.00;;
21138;SDS011;10727;43.600;1.444;2023-07-02T15:36:49;2.55;;;1.20;;
21138;SDS011;10727;43.600;1.444;2023-07-02T15:39:54;1.38;;;1.02;;
21138;SDS011;10727;43.600;1.444;2023-07-02T15:42:59;2.67;;;1.20;;
21138;SDS011;10727;43.600;1.444;2023-07-02T15:46:05;2.70;;;1.00;;
21138;SDS011;10727;43.600;1.444;2023-07-02T15:49:12;1.65;;;0.85;;
21138;SDS011;10727;43.600;1.444;2023-07-02T15:52:18;2.38;;;1.42;;
21138;SDS011;10727;43.600;1.444;2023-07-02T15:55:23;1.38;;;1.20;;
21138;SDS011;10727;43.600;1.444;2023-07-02T15:58:29;1.40;;;1.30;;
21138;SDS011;10727;43.600;1.444;2023-07-02T16:01:35;1.90;;;1.30;;
21138;SDS011;10727;43.600;1.444;2023-07-02T16:04:43;2.83;;;1.38;;
21138;SDS011;10727;43.600;1.444;2023-07-02T16:07:49;0.98;;;0.80;;
21138;SDS011;10727;43.600;1.444;2023-07-02T16:10:54;1.33;;;1.10;;
21138;SDS011;10727;43.600;1.444;2023-07-02T16:13:59;1.50;;;1.10;;
21138;SDS011;10727;43.600;1.444;2023-07-02T16:17:06;4.40;;;1.30;;
21138;SDS011;10727;43.600;1.444;2023-07-02T16:20:13;2.97;;;1.50;;
21138;SDS011;10727;43.600;1.444;2023-07-02T16:23:19;2.00;;;1.35;;
21138;SDS011;10727;43.600;1.444;2023-07-02T16:26:24;2.50;;;1.70;;
21138;SDS011;10727;43.600;1.444;2023-07-02T16:29:29;15.60;;;11.40;;
21138;SDS011;10727;43.600;1.444;2023-07-02T16:32:35;10.73;;;7.72;;
21138;SDS011;10727;43.600;1.444;2023-07-02T16:35:41;2.85;;;2.35;;
21138;SDS011;10727;43.600;1.444;2023-07-02T16:38:46;3.42;;;1.95;;
21138;SDS011;10727;43.600;1.444;2023-07-02T16:41:53;2.03;;;1.30;;
21138;SDS011;10727;43.600;1.444;2023-07-02T16:44:59;3.00;;;1.50;;
21138;SDS011;10727;43.600;1.444;2023-07-02T16:48:08;2.65;;;1.45;;
21138;SDS011;10727;43.600;1.444;2023-07-02T16:51:14;2.78;;;1.27;;
21138;SDS011;10727;43.600;1.444;2023-07-02T16:54:20;1.85;;;1.10;;
21138;SDS011;10727;43.600;1.444;2023-07-02T16:57:26;1.83;;;1.10;;
21138;SDS011;10727;43.600;1.444;2023-07-02T17:00:31;3.70;;;1.23;;
21138;SDS011;10727;43.600;1.444;2023-07-02T17:03:36;9.93;;;7.30;;
21138;SDS011;10727;43.600;1.444;2023-07-02T17:06:43;14.40;;;12.63;;
21138;SDS011;10727;43.600;1.444;2023-07-02T17:09:50;8.13;;;7.00;;
21138;SDS011;10727;43.600;1.444;2023-07-02T17:12:55;4.30;;;2.03;;
21138;SDS011;10727;43.600;1.444;2023-07-02T17:16:00;3.95;;;1.83;;
21138;SDS011;10727;43.600;1.444;2023-07-02T17:19:05;2.85;;;1.50;;
21138;SDS011;10727;43.600;1.444;2023-07-02T17:22:12;2.30;;;1.50;;
21138;SDS011;10727;43.600;1.444;2023-07-02T17:25:18;4.50;;;1.50;;
21138;SDS011;10727;43.600;1.444;2023-07-02T17:28:23;2.67;;;1.40;;
21138;SDS011;10727;43.600;1.444;2023-07-02T17:31:29;2.30;;;1.60;;
21138;SDS011;10727;43.600;1.444;2023-07-02T17:34:34;2.45;;;1.70;;
21138;SDS011;10727;43.600;1.444;2023-07-02T17:37:41;1.58;;;1.30;;
21138;SDS011;10727;43.600;1.444;2023-07-02T17:40:46;2.67;;;1.60;;
21138;SDS011;10727;43.600;1.444;2023-07-02T17:43:52;2.22;;;1.73;;
21138;SDS011;10727;43.600;1.444;2023-07-02T17:46:59;3.00;;;1.70;;
21138;SDS011;10727;43.600;1.444;2023-07-02T17:50:07;2.75;;;1.80;;
21138;SDS011;10727;43.600;1.444;2023-07-02T17:53:15;2.42;;;1.60;;
21138;SDS011;10727;43.600;1.444;2023-07-02T17:56:22;2.35;;;1.60;;
21138;SDS011;10727;43.600;1.444;2023-07-02T17:59:28;2.50;;;1.73;;
21138;SDS011;10727;43.600;1.444;2023-07-02T18:02:33;3.45;;;1.88;;
21138;SDS011;10727;43.600;1.444;2023-07-02T18:05:41;3.13;;;1.88;;
21138;SDS011;10727;43.600;1.444;2023-07-02T18:08:48;5.88;;;1.98;;
21138;SDS011;10727;43.600;1.444;2023-07-02T18:11:53;3.33;;;1.88;;
21138;SDS011;10727;43.600;1.444;2023-07-02T18:14:59;2.80;;;1.70;;
21138;SDS011;10727;43.600;1.444;2023-07-02T18:18:04;3.20;;;1.65;;
21138;SDS011;10727;43.600;1.444;2023-07-02T18:21:09;4.22;;;1.70;;
21138;SDS011;10727;43.600;1.444;2023-07-02T18:24:16;1.73;;;1.52;;
21138;SDS011;10727;43.600;1.444;2023-07-02T18:27:21;2.03;;;1.60;;
21138;SDS011;10727;43.600;1.444;2023-07-02T18:30:27;3.67;;;1.77;;
21138;SDS011;10727;43.600;1.444;2023-07-02T18:33:32;2.72;;;2.00;;